sensor_id;sensor_type;location;lat;lon;timestamp;P1;durP1;ratioP1;P2;durP2;ratioP2
70667;SDS011;58242;51.250;-1.118;2022-07-10T00:00:10;6.93;;;5.28;;
70667;SDS011;58242;51.250;-1.118;2022-07-10T00:02:37;5.95;;;4.60;;
70667;SDS011;58242;51.250;-1.118;2022-07-10T00:05:04;6.20;;;4.40;;
70667;SDS011;58242;51.250;-1.118;2022-07-10T00:07:30;5.40;;;4.30;;
70667;SDS011;58242;51.250;-1.118;2022-07-10T00:09:56;9.05;;;4.50;;
70667;SDS011;58242;51.250;-1.118;2022-07-10T00:12:21;7.82;;;4.72;;
70667;SDS011;58242;51.250;-1.118;2022-07-10T00:14:47;5.25;;;4.40;;
70667;SDS011;58242;51.250;-1.118;2022-07-10T00:17:12;5.78;;;4.30;;
70667;SDS011;58242;51.250;-1.118;2022-07-10T00:19:38;5.68;;;4.25;;
70667;SDS011;58242;51.250;-1.118;2022-07-10T00:22:03;5.22;;;3.95;;
70667;SDS011;58242;51.250;-1.118;2022-07-10T00:24:29;5.22;;;4.40;;
70667;SDS011;58242;51.250;-1.118;2022-07-10T00:26:54;5.60;;;3.67;;
70667;SDS011;58242;51.250;-1.118;2022-07-10T00:29:20;5.75;;;3.90;;
70667;SDS011;58242;51.250;-1.118;2022-07-10T00:31:45;5.25;;;3.20;;
70667;SDS011;58242;51.250;-1.118;2022-07-10T00:34:11;5.00;;;2.90;;
70667;SDS011;58242;51.250;-1.118;2022-07-10T00:36:37;2.92;;;2.47;;
70667;SDS011;58242;51.250;-1.118;2022-07-10T00:39:02;2.75;;;2.47;;
70667;SDS011;58242;51.250;-1.118;2022-07-10T00:41:28;3.08;;;2.67;;
70667;SDS011;58242;51.250;-1.118;2022-07-10T00:44:00;3.35;;;1.98;;
70667;SDS011;58242;51.250;-1.118;2022-07-10T00:46:26;2.15;;;1.95;;
70667;SDS011;58242;51.250;-1.118;2022-07-10T00:48:53;2.92;;;2.30;;
70667;SDS011;58242;51.250;-1.118;2022-07-10T00:51:20;1.98;;;1.88;;
70667;SDS011;58242;51.250;-1.118;2022-07-10T00:53:47;3.23;;;2.67;;
70667;SDS011;58242;51.250;-1.118;2022-07-10T00:56:17;2.80;;;2.03;;
70667;SDS011;58242;51.250;-1.118;2022-07-10T00:58:46;2.72;;;2.38;;
70667;SDS011;58242;51.250;-1.118;2022-07-10T01:01:12;2.13;;;1.90;;
70667;SDS011;58242;51.250;-1.118;2022-07-10T01:03:38;1.75;;;1.65;;
70667;SDS011;58242;51.250;-1.118;2022-07-10T01:06:04;1.80;;;1.70;;
70667;SDS011;58242;51.250;-1.118;2022-07-10T01:08:29;2.20;;;2.03;;
70667;SDS011;58242;51.250;-1.118;2022-07-10T01:10:55;4.18;;;1.60;;
70667;SDS011;58242;51.250;-1.118;2022-07-10T01:13:21;1.90;;;1.80;;
70667;SDS011;58242;51.250;-1.118;2022-07-10T01:15:47;1.67;;;1.58;;
70667;SDS011;58242;51.250;-1.118;2022-07-10T01:18:13;2.00;;;1.83;;
70667;SDS011;58242;51.250;-1.118;2022-07-10T01:20:39;1.83;;;1.73;;
70667;SDS011;58242;51.250;-1.118;2022-07-10T01:23:04;1.85;;;1.60;;
70667;SDS011;58242;51.250;-1.118;2022-07-10T01:25:30;1.58;;;1.48;;
70667;SDS011;58242;51.250;-1.118;2022-07-10T01:27:55;2.85;;;2.13;;
70667;SDS011;58242;51.250;-1.118;2022-07-10T01:30:21;1.80;;;1.70;;
70667;SDS011;58242;51.250;-1.118;2022-07-10T01:32:46;1.90;;;1.80;;
70667;SDS011;58242;51.250;-1.118;2022-07-10T01:35:12;1.80;;;1.70;;
70667;SDS011;58242;51.250;-1.118;2022-07-10T01:37:38;1.88;;;1.70;;
70667;SDS011;58242;51.250;-1.118;2022-07-10T01:40:05;1.92;;;1.83;;
70667;SDS011;58242;51.250;-1.118;2022-07-10T01:42:31;1.60;;;1.50;;
70667;SDS011;58242;51.250;-1.118;2022-07-10T01:44:56;3.50;;;1.92;;
70667;SDS011;58242;51.250;-1.118;2022-07-10T01:47:22;2.47;;;1.77;;
70667;SDS011;58242;51.250;-1.118;2022-07-10T01:49:52;2.13;;;1.80;;
70667;SDS011;58242;51.250;-1.118;2022-07-10T01:52:18;2.20;;;2.00;;
70667;SDS011;58242;51.250;-1.118;2022-07-10T01:54:45;1.80;;;1.70;;
70667;SDS011;58242;51.250;-1.118;2022-07-10T01:57:11;2.65;;;2.15;;
70667;SDS011;58242;51.250;-1.118;2022-07-10T01:59:36;1.70;;;1.60;;
70667;SDS011;58242;51.250;-1.118;2022-07-10T02:02:01;2.30;;;1.42;;
70667;SDS011;58242;51.250;-1.118;2022-07-10T02:04:27;1.70;;;1.60;;
70667;SDS011;58242;51.250;-1.118;2022-07-10T02:07:08;2.78;;;1.80;;
70667;SDS011;58242;51.250;-1.118;2022-07-10T02:09:40;1.70;;;1.58;;
70667;SDS011;58242;51.250;-1.118;2022-07-10T02:12:10;3.30;;;1.90;;
70667;SDS011;58242;51.250;-1.118;2022-07-10T02:14:37;1.80;;;1.70;;
70667;SDS011;58242;51.250;-1.118;2022-07-10T02:17:03;4.18;;;1.80;;
70667;SDS011;58242;51.250;-1.118;2022-07-10T02:19:29;1.38;;;1.33;;
70667;SDS011;58242;51.250;-1.118;2022-07-10T02:21:54;1.70;;;1.60;;
70667;SDS011;58242;51.250;-1.118;2022-07-10T02:24:20;1.92;;;1.73;;
70667;SDS011;58242;51.250;-1.118;2022-07-10T02:26:45;2.17;;;1.50;;
70667;SDS011;58242;51.250;-1.118;2022-07-10T02:29:11;1.73;;;1.60;;
70667;SDS011;58242;51.250;-1.118;2022-07-10T02:31:36;1.10;;;1.10;;
70667;SDS011;58242;51.250;-1.118;2022-07-10T02:34:08;1.85;;;1.60;;
70667;SDS011;58242;51.250;-1.118;2022-07-10T02:36:35;2.03;;;1.30;;
70667;SDS011;58242;51.250;-1.118;2022-07-10T02:39:02;1.50;;;1.40;;
70667;SDS011;58242;51.250;-1.118;2022-07-10T02:41:28;1.10;;;1.10;;
70667;SDS011;58242;51.250;-1.118;2022-07-10T02:43:53;2.25;;;1.65;;
70667;SDS011;58242;51.250;-1.118;2022-07-10T02:46:19;1.38;;;1.30;;
70667;SDS011;58242;51.250;-1.118;2022-07-10T02:48:44;1.67;;;1.58;;
70667;SDS011;58242;51.250;-1.118;2022-07-10T02:51:10;1.40;;;1.30;;
70667;SDS011;58242;51.250;-1.118;2022-07-10T02:53:35;1.50;;;1.40;;
70667;SDS011;58242;51.250;-1.118;2022-07-10T02:56:01;1.38;;;1.30;;
70667;SDS011;58242;51.250;-1.118;2022-07-10T02:58:26;1.52;;;1.42;;
70667;SDS011;58242;51.250;-1.118;2022-07-10T03:00:52;2.58;;;1.75;;
70667;SDS011;58242;51.250;-1.118;2022-07-10T03:03:17;1.58;;;1.48;;
70667;SDS011;58242;51.250;-1.118;2022-07-10T03:05:46;1.73;;;1.63;;
70667;SDS011;58242;51.250;-1.118;2022-07-10T03:08:12;1.40;;;1.30;;
70667;SDS011;58242;51.250;-1.118;2022-07-10T03:10:37;1.50;;;1.40;;
70667;SDS011;58242;51.250;-1.118;2022-07-10T03:13:03;1.42;;;1.42;;
70667;SDS011;58242;51.250;-1.118;2022-07-10T03:15:28;4.88;;;1.55;;
70667;SDS011;58242;51.250;-1.118;2022-07-10T03:17:54;1.60;;;1.50;;
70667;SDS011;58242;51.250;-1.118;2022-07-10T03:20:19;1.70;;;1.60;;
70667;SDS011;58242;51.250;-1.118;2022-07-10T03:22:45;1.80;;;1.70;;
70667;SDS011;58242;51.250;-1.118;2022-07-10T03:25:10;1.70;;;1.60;;
70667;SDS011;58242;51.250;-1.118;2022-07-10T03:27:36;1.58;;;1.48;;
70667;SDS011;58242;51.250;-1.118;2022-07-10T03:30:01;2.53;;;1.75;;
70667;SDS011;58242;51.250;-1.118;2022-07-10T03:32:26;1.70;;;1.60;;
70667;SDS011;58242;51.250;-1.118;2022-07-10T03:34:52;1.52;;;1.48;;
70667;SDS011;58242;51.250;-1.118;2022-07-10T03:37:17;2.33;;;1.77;;
70667;SDS011;58242;51.250;-1.118;2022-07-10T03:39:43;1.80;;;1.67;;
70667;SDS011;58242;51.250;-1.118;2022-07-10T03:42:08;1.63;;;1.48;;
70667;SDS011;58242;51.250;-1.118;2022-07-10T03:44:33;3.30;;;2.33;;
70667;SDS011;58242;51.250;-1.118;2022-07-10T03:46:59;1.67;;;1.58;;
70667;SDS011;58242;51.250;-1.118;2022-07-10T03:49:25;1.65;;;1.55;;
70667;SDS011;58242;51.250;-1.118;2022-07-10T03:51:50;1.67;;;1.58;;
70667;SDS011;58242;51.250;-1.118;2022-07-10T03:54:16;2.28;;;1.52;;
70667;SDS011;58242;51.250;-1.118;2022-07-10T03:56:41;1.85;;;1.60;;
70667;SDS011;58242;51.250;-1.118;2022-07-10T03:59:25;2.13;;;1.77;;
70667;SDS011;58242;51.250;-1.118;2022-07-10T04:01:50;1.75;;;1.63;;
70667;SDS011;58242;51.250;-1.118;2022-07-10T04:04:16;1.30;;;1.30;;
70667;SDS011;58242;51.250;-1.118;2022-07-10T04:06:41;1.65;;;1.55;;
70667;SDS011;58242;51.250;-1.118;2022-07-10T04:09:06;2.35;;;1.67;;
70667;SDS011;58242;51.250;-1.118;2022-07-10T04:11:32;1.73;;;1.40;;
70667;SDS011;58242;51.250;-1.118;2022-07-10T04:13:57;1.98;;;1.70;;
70667;SDS011;58242;51.250;-1.118;2022-07-10T04:16:23;1.70;;;1.60;;
70667;SDS011;58242;51.250;-1.118;2022-07-10T04:18:48;1.58;;;1.50;;
70667;SDS011;58242;51.250;-1.118;2022-07-10T04:21:14;1.65;;;1.55;;
70667;SDS011;58242;51.250;-1.118;2022-07-10T04:23:40;1.95;;;1.85;;
70667;SDS011;58242;51.250;-1.118;2022-07-10T04:26:05;1.63;;;1.52;;
70667;SDS011;58242;51.250;-1.118;2022-07-10T04:28:30;1.77;;;1.65;;
70667;SDS011;58242;51.250;-1.118;2022-07-10T04:30:56;1.70;;;1.60;;
70667;SDS011;58242;51.250;-1.118;2022-07-10T04:33:22;1.50;;;1.40;;
70667;SDS011;58242;51.250;-1.118;2022-07-10T04:35:47;2.25;;;1.92;;
70667;SDS011;58242;51.250;-1.118;2022-07-10T04:38:12;2.10;;;1.90;;
70667;SDS011;58242;51.250;-1.118;2022-07-10T04:40:38;2.17;;;1.98;;
70667;SDS011;58242;51.250;-1.118;2022-07-10T04:43:04;2.22;;;2.00;;
70667;SDS011;58242;51.250;-1.118;2022-07-10T04:45:29;3.78;;;2.33;;
70667;SDS011;58242;51.250;-1.118;2022-07-10T04:47:54;2.40;;;1.80;;
70667;SDS011;58242;51.250;-1.118;2022-07-10T04:50:20;2.88;;;1.58;;
70667;SDS011;58242;51.250;-1.118;2022-07-10T04:52:45;2.63;;;1.88;;
70667;SDS011;58242;51.250;-1.118;2022-07-10T04:55:10;2.15;;;1.90;;
70667;SDS011;58242;51.250;-1.118;2022-07-10T04:57:36;2.05;;;1.90;;
70667;SDS011;58242;51.250;-1.118;2022-07-10T05:00:02;1.88;;;1.77;;
70667;SDS011;58242;51.250;-1.118;2022-07-10T05:02:28;1.63;;;1.52;;
70667;SDS011;58242;51.250;-1.118;2022-07-10T05:04:54;2.00;;;1.80;;
70667;SDS011;58242;51.250;-1.118;2022-07-10T05:07:19;1.70;;;1.60;;
70667;SDS011;58242;51.250;-1.118;2022-07-10T05:09:44;2.40;;;1.77;;
70667;SDS011;58242;51.250;-1.118;2022-07-10T05:12:10;2.17;;;1.42;;
70667;SDS011;58242;51.250;-1.118;2022-07-10T05:14:35;2.03;;;1.83;;
70667;SDS011;58242;51.250;-1.118;2022-07-10T05:17:00;2.67;;;2.08;;
70667;SDS011;58242;51.250;-1.118;2022-07-10T05:19:26;2.05;;;1.38;;
70667;SDS011;58242;51.250;-1.118;2022-07-10T05:21:51;2.20;;;1.80;;
70667;SDS011;58242;51.250;-1.118;2022-07-10T05:24:17;2.00;;;1.80;;
70667;SDS011;58242;51.250;-1.118;2022-07-10T05:26:42;1.80;;;1.70;;
70667;SDS011;58242;51.250;-1.118;2022-07-10T05:29:08;3.03;;;1.85;;
70667;SDS011;58242;51.250;-1.118;2022-07-10T05:31:33;2.55;;;1.85;;
70667;SDS011;58242;51.250;-1.118;2022-07-10T05:33:58;1.70;;;1.60;;
70667;SDS011;58242;51.250;-1.118;2022-07-10T05:36:24;1.83;;;1.70;;
70667;SDS011;58242;51.250;-1.118;2022-07-10T05:38:50;2.25;;;1.77;;
70667;SDS011;58242;51.250;-1.118;2022-07-10T05:41:15;2.00;;;1.67;;
70667;SDS011;58242;51.250;-1.118;2022-07-10T05:43:40;1.98;;;1.70;;
70667;SDS011;58242;51.250;-1.118;2022-07-10T05:46:06;2.63;;;1.63;;
70667;SDS011;58242;51.250;-1.118;2022-07-10T05:48:31;1.80;;;1.70;;
70667;SDS011;58242;51.250;-1.118;2022-07-10T05:50:57;1.92;;;1.70;;
70667;SDS011;58242;51.250;-1.118;2022-07-10T05:53:22;2.08;;;1.80;;
70667;SDS011;58242;51.250;-1.118;2022-07-10T05:55:48;1.90;;;1.80;;
70667;SDS011;58242;51.250;-1.118;2022-07-10T05:58:14;2.95;;;1.90;;
70667;SDS011;58242;51.250;-1.118;2022-07-10T06:00:40;2.55;;;1.80;;
70667;SDS011;58242;51.250;-1.118;2022-07-10T06:03:07;2.83;;;2.25;;
70667;SDS011;58242;51.250;-1.118;2022-07-10T06:05:33;3.28;;;2.10;;
70667;SDS011;58242;51.250;-1.118;2022-07-10T06:07:58;1.90;;;1.80;;
70667;SDS011;58242;51.250;-1.118;2022-07-10T06:10:24;2.30;;;1.77;;
70667;SDS011;58242;51.250;-1.118;2022-07-10T06:12:49;2.05;;;1.92;;
70667;SDS011;58242;51.250;-1.118;2022-07-10T06:15:15;1.83;;;1.55;;
70667;SDS011;58242;51.250;-1.118;2022-07-10T06:17:40;2.55;;;1.83;;
70667;SDS011;58242;51.250;-1.118;2022-07-10T06:20:06;2.00;;;1.80;;
70667;SDS011;58242;51.250;-1.118;2022-07-10T06:22:32;1.80;;;1.70;;
70667;SDS011;58242;51.250;-1.118;2022-07-10T06:25:01;1.50;;;1.40;;
70667;SDS011;58242;51.250;-1.118;2022-07-10T06:27:29;4.55;;;1.83;;
70667;SDS011;58242;51.250;-1.118;2022-07-10T06:29:54;5.22;;;1.67;;
70667;SDS011;58242;51.250;-1.118;2022-07-10T06:32:20;1.42;;;1.33;;
70667;SDS011;58242;51.250;-1.118;2022-07-10T06:34:46;1.98;;;1.80;;
70667;SDS011;58242;51.250;-1.118;2022-07-10T06:37:12;1.73;;;1.63;;
70667;SDS011;58242;51.250;-1.118;2022-07-10T06:39:37;1.70;;;1.60;;
70667;SDS011;58242;51.250;-1.118;2022-07-10T06:42:03;1.83;;;1.73;;
70667;SDS011;58242;51.250;-1.118;2022-07-10T06:44:29;3.47;;;1.85;;
70667;SDS011;58242;51.250;-1.118;2022-07-10T06:46:54;2.10;;;1.85;;
70667;SDS011;58242;51.250;-1.118;2022-07-10T06:49:39;2.20;;;1.77;;
70667;SDS011;58242;51.250;-1.118;2022-07-10T06:52:05;2.50;;;1.80;;
70667;SDS011;58242;51.250;-1.118;2022-07-10T06:54:31;2.13;;;1.98;;
70667;SDS011;58242;51.250;-1.118;2022-07-10T06:56:56;1.63;;;1.48;;
70667;SDS011;58242;51.250;-1.118;2022-07-10T06:59:22;2.67;;;1.60;;
70667;SDS011;58242;51.250;-1.118;2022-07-10T07:01:47;1.65;;;1.52;;
70667;SDS011;58242;51.250;-1.118;2022-07-10T07:04:12;1.55;;;1.45;;
70667;SDS011;58242;51.250;-1.118;2022-07-10T07:06:38;1.67;;;1.58;;
70667;SDS011;58242;51.250;-1.118;2022-07-10T07:09:03;1.63;;;1.52;;
70667;SDS011;58242;51.250;-1.118;2022-07-10T07:11:28;1.42;;;1.30;;
70667;SDS011;58242;51.250;-1.118;2022-07-10T07:13:54;4.22;;;2.13;;
70667;SDS011;58242;51.250;-1.118;2022-07-10T07:16:19;2.10;;;2.00;;
70667;SDS011;58242;51.250;-1.118;2022-07-10T07:18:52;1.90;;;1.80;;
70667;SDS011;58242;51.250;-1.118;2022-07-10T07:21:17;1.70;;;1.60;;
70667;SDS011;58242;51.250;-1.118;2022-07-10T07:24:02;1.58;;;1.48;;
70667;SDS011;58242;51.250;-1.118;2022-07-10T07:26:29;2.00;;;1.90;;
70667;SDS011;58242;51.250;-1.118;2022-07-10T07:28:54;2.10;;;1.98;;
70667;SDS011;58242;51.250;-1.118;2022-07-10T07:31:20;1.80;;;1.70;;
70667;SDS011;58242;51.250;-1.118;2022-07-10T07:33:45;2.00;;;1.90;;
70667;SDS011;58242;51.250;-1.118;2022-07-10T07:36:10;2.70;;;2.47;;
70667;SDS011;58242;51.250;-1.118;2022-07-10T07:38:36;2.20;;;1.67;;
70667;SDS011;58242;51.250;-1.118;2022-07-10T07:41:01;2.35;;;1.60;;
70667;SDS011;58242;51.250;-1.118;2022-07-10T07:43:27;2.38;;;1.85;;
70667;SDS011;58242;51.250;-1.118;2022-07-10T07:45:52;2.28;;;2.10;;
70667;SDS011;58242;51.250;-1.118;2022-07-10T07:48:18;2.17;;;1.98;;
70667;SDS011;58242;51.250;-1.118;2022-07-10T07:50:43;2.65;;;2.45;;
70667;SDS011;58242;51.250;-1.118;2022-07-10T07:53:08;2.20;;;2.00;;
70667;SDS011;58242;51.250;-1.118;2022-07-10T07:55:34;4.25;;;2.13;;
70667;SDS011;58242;51.250;-1.118;2022-07-10T07:57:59;2.65;;;2.55;;
70667;SDS011;58242;51.250;-1.118;2022-07-10T08:00:26;2.80;;;2.42;;
70667;SDS011;58242;51.250;-1.118;2022-07-10T08:02:52;2.42;;;2.33;;
70667;SDS011;58242;51.250;-1.118;2022-07-10T08:05:19;2.53;;;2.42;;
70667;SDS011;58242;51.250;-1.118;2022-07-10T08:07:46;2.20;;;2.10;;
70667;SDS011;58242;51.250;-1.118;2022-07-10T08:10:15;3.03;;;1.98;;
70667;SDS011;58242;51.250;-1.118;2022-07-10T08:12:42;2.20;;;2.10;;
70667;SDS011;58242;51.250;-1.118;2022-07-10T08:15:09;1.88;;;1.70;;
70667;SDS011;58242;51.250;-1.118;2022-07-10T08:17:35;1.90;;;1.70;;
70667;SDS011;58242;51.250;-1.118;2022-07-10T08:20:01;2.13;;;2.03;;
70667;SDS011;58242;51.250;-1.118;2022-07-10T08:22:30;2.22;;;1.90;;
70667;SDS011;58242;51.250;-1.118;2022-07-10T08:24:56;2.67;;;2.42;;
70667;SDS011;58242;51.250;-1.118;2022-07-10T08:27:22;2.33;;;2.05;;
70667;SDS011;58242;51.250;-1.118;2022-07-10T08:29:48;2.30;;;2.20;;
70667;SDS011;58242;51.250;-1.118;2022-07-10T08:32:13;1.70;;;1.60;;
70667;SDS011;58242;51.250;-1.118;2022-07-10T08:34:39;1.80;;;1.70;;
70667;SDS011;58242;51.250;-1.118;2022-07-10T08:37:04;1.73;;;1.63;;
70667;SDS011;58242;51.250;-1.118;2022-07-10T08:39:30;1.98;;;1.85;;
70667;SDS011;58242;51.250;-1.118;2022-07-10T08:41:56;2.30;;;1.98;;
70667;SDS011;58242;51.250;-1.118;2022-07-10T08:44:22;2.33;;;1.67;;
70667;SDS011;58242;51.250;-1.118;2022-07-10T08:46:48;2.05;;;1.50;;
70667;SDS011;58242;51.250;-1.118;2022-07-10T08:49:13;2.08;;;1.98;;
70667;SDS011;58242;51.250;-1.118;2022-07-10T08:51:47;1.83;;;1.67;;
70667;SDS011;58242;51.250;-1.118;2022-07-10T08:54:14;1.85;;;1.70;;
70667;SDS011;58242;51.250;-1.118;2022-07-10T08:56:42;2.47;;;1.92;;
70667;SDS011;58242;51.250;-1.118;2022-07-10T08:59:08;1.90;;;1.40;;
70667;SDS011;58242;51.250;-1.118;2022-07-10T09:01:37;1.77;;;1.50;;
70667;SDS011;58242;51.250;-1.118;2022-07-10T09:04:03;4.07;;;1.95;;
70667;SDS011;58242;51.250;-1.118;2022-07-10T09:06:28;2.67;;;1.70;;
70667;SDS011;58242;51.250;-1.118;2022-07-10T09:08:57;2.05;;;1.50;;
70667;SDS011;58242;51.250;-1.118;2022-07-10T09:11:27;1.73;;;1.63;;
70667;SDS011;58242;51.250;-1.118;2022-07-10T09:13:57;2.58;;;1.70;;
70667;SDS011;58242;51.250;-1.118;2022-07-10T09:16:28;2.20;;;1.90;;
70667;SDS011;58242;51.250;-1.118;2022-07-10T09:18:54;1.95;;;1.75;;
70667;SDS011;58242;51.250;-1.118;2022-07-10T09:21:21;1.85;;;1.73;;
70667;SDS011;58242;51.250;-1.118;2022-07-10T09:23:47;1.92;;;1.40;;
70667;SDS011;58242;51.250;-1.118;2022-07-10T09:26:13;1.30;;;1.25;;
70667;SDS011;58242;51.250;-1.118;2022-07-10T09:28:38;1.88;;;1.70;;
70667;SDS011;58242;51.250;-1.118;2022-07-10T09:31:04;2.10;;;1.80;;
70667;SDS011;58242;51.250;-1.118;2022-07-10T09:33:30;2.17;;;1.90;;
70667;SDS011;58242;51.250;-1.118;2022-07-10T09:36:03;2.25;;;1.70;;
70667;SDS011;58242;51.250;-1.118;2022-07-10T09:41:11;1.88;;;1.50;;
70667;SDS011;58242;51.250;-1.118;2022-07-10T09:46:23;1.70;;;1.60;;
70667;SDS011;58242;51.250;-1.118;2022-07-10T09:54:08;1.67;;;1.50;;
70667;SDS011;58242;51.250;-1.118;2022-07-10T09:56:41;1.70;;;1.60;;
70667;SDS011;58242;51.250;-1.118;2022-07-10T09:59:14;1.60;;;1.50;;
70667;SDS011;58242;51.250;-1.118;2022-07-10T10:01:42;1.67;;;1.50;;
70667;SDS011;58242;51.250;-1.118;2022-07-10T10:04:10;1.60;;;1.50;;
70667;SDS011;58242;51.250;-1.118;2022-07-10T10:06:36;1.73;;;1.63;;
70667;SDS011;58242;51.250;-1.118;2022-07-10T10:11:52;1.38;;;1.27;;
70667;SDS011;58242;51.250;-1.118;2022-07-10T10:14:22;1.55;;;1.42;;
70667;SDS011;58242;51.250;-1.118;2022-07-10T10:16:49;2.08;;;1.60;;
70667;SDS011;58242;51.250;-1.118;2022-07-10T10:19:16;1.30;;;1.20;;
70667;SDS011;58242;51.250;-1.118;2022-07-10T10:22:03;1.23;;;1.23;;
70667;SDS011;58242;51.250;-1.118;2022-07-10T10:24:31;1.83;;;1.48;;
70667;SDS011;58242;51.250;-1.118;2022-07-10T10:26:56;1.50;;;1.27;;
70667;SDS011;58242;51.250;-1.118;2022-07-10T10:29:22;1.00;;;0.93;;
70667;SDS011;58242;51.250;-1.118;2022-07-10T10:31:48;1.35;;;0.98;;
70667;SDS011;58242;51.250;-1.118;2022-07-10T10:34:14;1.00;;;1.00;;
70667;SDS011;58242;51.250;-1.118;2022-07-10T10:37:03;1.98;;;1.35;;
70667;SDS011;58242;51.250;-1.118;2022-07-10T10:39:32;2.35;;;1.27;;
70667;SDS011;58242;51.250;-1.118;2022-07-10T10:42:31;1.30;;;1.20;;
70667;SDS011;58242;51.250;-1.118;2022-07-10T10:45:51;1.30;;;1.20;;
70667;SDS011;58242;51.250;-1.118;2022-07-10T10:48:06;1.20;;;1.20;;
70667;SDS011;58242;51.250;-1.118;2022-07-10T10:50:37;1.15;;;1.15;;
70667;SDS011;58242;51.250;-1.118;2022-07-10T10:53:39;1.70;;;1.30;;
70667;SDS011;58242;51.250;-1.118;2022-07-10T10:58:42;1.25;;;1.15;;
70667;SDS011;58242;51.250;-1.118;2022-07-10T11:06:42;1.08;;;1.08;;
70667;SDS011;58242;51.250;-1.118;2022-07-10T11:09:24;1.20;;;1.17;;
70667;SDS011;58242;51.250;-1.118;2022-07-10T11:14:22;1.13;;;1.00;;
70667;SDS011;58242;51.250;-1.118;2022-07-10T11:16:53;1.17;;;1.00;;
70667;SDS011;58242;51.250;-1.118;2022-07-10T11:19:22;0.85;;;0.85;;
70667;SDS011;58242;51.250;-1.118;2022-07-10T11:21:49;0.90;;;0.90;;
70667;SDS011;58242;51.250;-1.118;2022-07-10T11:27:19;1.08;;;1.08;;
70667;SDS011;58242;51.250;-1.118;2022-07-10T11:29:57;0.85;;;0.85;;
70667;SDS011;58242;51.250;-1.118;2022-07-10T11:32:23;1.17;;;1.10;;
70667;SDS011;58242;51.250;-1.118;2022-07-10T11:34:49;0.90;;;0.90;;
70667;SDS011;58242;51.250;-1.118;2022-07-10T11:37:15;0.90;;;0.90;;
70667;SDS011;58242;51.250;-1.118;2022-07-10T11:39:41;1.05;;;0.70;;
70667;SDS011;58242;51.250;-1.118;2022-07-10T11:42:07;1.38;;;0.88;;
70667;SDS011;58242;51.250;-1.118;2022-07-10T11:44:32;1.02;;;0.80;;
70667;SDS011;58242;51.250;-1.118;2022-07-10T11:46:58;1.60;;;1.13;;
70667;SDS011;58242;51.250;-1.118;2022-07-10T11:49:24;0.68;;;0.68;;
70667;SDS011;58242;51.250;-1.118;2022-07-10T11:51:50;0.85;;;0.85;;
70667;SDS011;58242;51.250;-1.118;2022-07-10T11:54:17;1.30;;;1.20;;
70667;SDS011;58242;51.250;-1.118;2022-07-10T11:56:50;1.13;;;0.93;;
70667;SDS011;58242;51.250;-1.118;2022-07-10T11:59:17;0.93;;;0.93;;
70667;SDS011;58242;51.250;-1.118;2022-07-10T12:01:45;0.90;;;0.90;;
70667;SDS011;58242;51.250;-1.118;2022-07-10T12:04:13;0.80;;;0.80;;
70667;SDS011;58242;51.250;-1.118;2022-07-10T12:06:43;0.70;;;0.70;;
70667;SDS011;58242;51.250;-1.118;2022-07-10T12:11:39;0.73;;;0.73;;
70667;SDS011;58242;51.250;-1.118;2022-07-10T12:16:47;0.80;;;0.80;;
70667;SDS011;58242;51.250;-1.118;2022-07-10T12:19:19;1.17;;;0.80;;
70667;SDS011;58242;51.250;-1.118;2022-07-10T12:21:48;0.60;;;0.60;;
70667;SDS011;58242;51.250;-1.118;2022-07-10T12:24:15;0.70;;;0.70;;
70667;SDS011;58242;51.250;-1.118;2022-07-10T12:29:11;0.80;;;0.80;;
70667;SDS011;58242;51.250;-1.118;2022-07-10T12:31:53;0.80;;;0.80;;
70667;SDS011;58242;51.250;-1.118;2022-07-10T12:34:20;1.25;;;1.08;;
70667;SDS011;58242;51.250;-1.118;2022-07-10T12:36:58;0.70;;;0.70;;
70667;SDS011;58242;51.250;-1.118;2022-07-10T12:39:24;0.85;;;0.80;;
70667;SDS011;58242;51.250;-1.118;2022-07-10T12:44:42;0.80;;;0.80;;
70667;SDS011;58242;51.250;-1.118;2022-07-10T12:47:12;0.70;;;0.70;;
70667;SDS011;58242;51.250;-1.118;2022-07-10T12:57:50;0.80;;;0.80;;
70667;SDS011;58242;51.250;-1.118;2022-07-10T13:00:17;0.70;;;0.70;;
70667;SDS011;58242;51.250;-1.118;2022-07-10T13:02:45;1.25;;;1.15;;
70667;SDS011;58242;51.250;-1.118;2022-07-10T13:05:34;1.10;;;1.00;;
70667;SDS011;58242;51.250;-1.118;2022-07-10T13:10:55;1.00;;;1.00;;
70667;SDS011;58242;51.250;-1.118;2022-07-10T13:13:21;0.80;;;0.80;;
70667;SDS011;58242;51.250;-1.118;2022-07-10T13:15:47;1.05;;;1.05;;
70667;SDS011;58242;51.250;-1.118;2022-07-10T13:18:18;1.13;;;1.02;;
70667;SDS011;58242;51.250;-1.118;2022-07-10T13:20:46;1.00;;;1.00;;
70667;SDS011;58242;51.250;-1.118;2022-07-10T13:23:13;0.90;;;0.90;;
70667;SDS011;58242;51.250;-1.118;2022-07-10T13:25:39;0.90;;;0.90;;
70667;SDS011;58242;51.250;-1.118;2022-07-10T13:28:05;0.93;;;0.93;;
70667;SDS011;58242;51.250;-1.118;2022-07-10T13:30:32;1.10;;;1.00;;
70667;SDS011;58242;51.250;-1.118;2022-07-10T13:32:58;1.40;;;1.40;;
70667;SDS011;58242;51.250;-1.118;2022-07-10T13:35:23;1.25;;;1.17;;
70667;SDS011;58242;51.250;-1.118;2022-07-10T13:37:49;1.10;;;1.10;;
70667;SDS011;58242;51.250;-1.118;2022-07-10T13:40:14;1.40;;;1.30;;
70667;SDS011;58242;51.250;-1.118;2022-07-10T13:42:40;0.90;;;0.90;;
70667;SDS011;58242;51.250;-1.118;2022-07-10T13:45:05;1.05;;;1.05;;
70667;SDS011;58242;51.250;-1.118;2022-07-10T13:47:33;1.10;;;1.08;;
70667;SDS011;58242;51.250;-1.118;2022-07-10T13:49:58;1.23;;;1.13;;
70667;SDS011;58242;51.250;-1.118;2022-07-10T13:52:24;1.00;;;1.00;;
70667;SDS011;58242;51.250;-1.118;2022-07-10T13:54:49;1.20;;;1.20;;
70667;SDS011;58242;51.250;-1.118;2022-07-10T13:57:15;1.50;;;1.40;;
70667;SDS011;58242;51.250;-1.118;2022-07-10T13:59:40;1.00;;;1.00;;
70667;SDS011;58242;51.250;-1.118;2022-07-10T14:02:06;1.00;;;1.00;;
70667;SDS011;58242;51.250;-1.118;2022-07-10T14:04:31;1.15;;;1.15;;
70667;SDS011;58242;51.250;-1.118;2022-07-10T14:06:56;1.20;;;1.20;;
70667;SDS011;58242;51.250;-1.118;2022-07-10T14:09:22;1.27;;;1.27;;
70667;SDS011;58242;51.250;-1.118;2022-07-10T14:11:48;1.00;;;1.00;;
70667;SDS011;58242;51.250;-1.118;2022-07-10T14:14:14;2.10;;;1.30;;
70667;SDS011;58242;51.250;-1.118;2022-07-10T14:16:40;1.08;;;1.08;;
70667;SDS011;58242;51.250;-1.118;2022-07-10T14:19:07;1.02;;;1.02;;
70667;SDS011;58242;51.250;-1.118;2022-07-10T14:21:32;1.05;;;1.05;;
70667;SDS011;58242;51.250;-1.118;2022-07-10T14:23:58;0.93;;;0.93;;
70667;SDS011;58242;51.250;-1.118;2022-07-10T14:26:23;1.17;;;1.17;;
70667;SDS011;58242;51.250;-1.118;2022-07-10T14:28:49;1.08;;;1.08;;
70667;SDS011;58242;51.250;-1.118;2022-07-10T14:31:16;0.90;;;0.90;;
70667;SDS011;58242;51.250;-1.118;2022-07-10T14:33:42;1.05;;;1.00;;
70667;SDS011;58242;51.250;-1.118;2022-07-10T14:36:08;1.00;;;1.00;;
70667;SDS011;58242;51.250;-1.118;2022-07-10T14:38:33;0.90;;;0.90;;
70667;SDS011;58242;51.250;-1.118;2022-07-10T14:40:59;1.13;;;1.13;;
70667;SDS011;58242;51.250;-1.118;2022-07-10T14:43:25;0.98;;;0.95;;
70667;SDS011;58242;51.250;-1.118;2022-07-10T14:45:50;1.20;;;1.10;;
70667;SDS011;58242;51.250;-1.118;2022-07-10T14:48:16;1.30;;;1.20;;
70667;SDS011;58242;51.250;-1.118;2022-07-10T14:50:41;1.38;;;1.25;;
70667;SDS011;58242;51.250;-1.118;2022-07-10T14:53:07;1.30;;;1.30;;
70667;SDS011;58242;51.250;-1.118;2022-07-10T14:55:33;0.90;;;0.90;;
70667;SDS011;58242;51.250;-1.118;2022-07-10T14:57:59;1.10;;;1.10;;
70667;SDS011;58242;51.250;-1.118;2022-07-10T15:00:25;1.33;;;1.23;;
70667;SDS011;58242;51.250;-1.118;2022-07-10T15:02:50;1.10;;;0.98;;
70667;SDS011;58242;51.250;-1.118;2022-07-10T15:05:15;1.50;;;1.40;;
70667;SDS011;58242;51.250;-1.118;2022-07-10T15:07:41;1.20;;;1.20;;
70667;SDS011;58242;51.250;-1.118;2022-07-10T15:10:06;1.60;;;1.50;;
70667;SDS011;58242;51.250;-1.118;2022-07-10T15:12:33;1.45;;;1.30;;
70667;SDS011;58242;51.250;-1.118;2022-07-10T15:15:01;1.63;;;1.52;;
70667;SDS011;58242;51.250;-1.118;2022-07-10T15:17:28;1.83;;;1.73;;
70667;SDS011;58242;51.250;-1.118;2022-07-10T15:19:53;1.77;;;1.67;;